createdAt,value
2019-03-11T00:00:38.643Z,20.67
2019-03-11T00:03:07.243Z,22.13
2019-03-11T00:05:35.815Z,22.32
2019-03-11T00:08:04.775Z,18.40
2019-03-11T00:10:33.265Z,16.80
2019-03-11T00:13:02.151Z,20.57
2019-03-11T00:15:30.909Z,22.25
2019-03-11T00:18:00.007Z,19.20
2019-03-11T00:20:28.703Z,21.50
2019-03-11T00:22:57.379Z,23.20
2019-03-11T00:25:26.079Z,25.03
2019-03-11T00:27:54.711Z,19.27
2019-03-11T00:30:23.395Z,17.57
2019-03-11T00:32:52.091Z,21.87
2019-03-11T00:35:20.783Z,20.60
2019-03-11T00:37:50.159Z,27.70
2019-03-11T00:40:18.667Z,19.87
2019-03-11T00:42:47.635Z,17.75
2019-03-11T00:45:16.167Z,20.05
2019-03-11T00:47:44.711Z,19.35
2019-03-11T00:50:13.315Z,17.03
2019-03-11T00:52:42.008Z,24.50
2019-03-11T00:55:10.555Z,19.10
2019-03-11T00:57:39.083Z,16.02
2019-03-11T01:00:11.807Z,12.80
2019-03-11T01:02:40.355Z,13.83
2019-03-11T01:05:09.043Z,12.25
2019-03-11T01:07:37.823Z,12.67
2019-03-11T01:10:06.714Z,15.70
2019-03-11T01:12:35.255Z,13.30
2019-03-11T01:15:05.087Z,12.17
2019-03-11T01:17:33.823Z,13.45
2019-03-11T01:20:02.543Z,12.07
2019-03-11T01:22:32.079Z,16.73
2019-03-11T01:25:00.892Z,12.27
2019-03-11T01:27:29.339Z,8.80
2019-03-11T01:29:57.779Z,10.98
2019-03-11T01:32:26.543Z,8.33
2019-03-11T01:34:55.003Z,8.37
2019-03-11T01:37:23.471Z,10.87
2019-03-11T01:39:52.169Z,9.27
2019-03-11T01:42:20.671Z,16.25
2019-03-11T01:44:49.387Z,11.35
2019-03-11T01:47:18.051Z,10.70
2019-03-11T01:49:46.508Z,8.63
2019-03-11T01:52:15.035Z,7.97
2019-03-11T01:54:43.495Z,2.95
2019-03-11T01:57:13.639Z,2.77
2019-03-11T01:59:42.095Z,1.07
2019-03-11T02:02:10.561Z,1.50
2019-03-11T02:04:39.095Z,0.53
2019-03-11T02:07:07.613Z,0.50
2019-03-11T02:09:36.330Z,1.70
2019-03-11T02:12:04.908Z,1.20
2019-03-11T02:14:33.458Z,1.90
2019-03-11T02:17:01.967Z,1.80
2019-03-11T02:19:30.469Z,1.70
2019-03-11T02:21:59.034Z,0.33
2019-03-11T02:24:27.526Z,1.23
2019-03-11T02:26:56.035Z,2.23
2019-03-11T02:29:24.792Z,2.07
2019-03-11T02:31:53.651Z,1.80
2019-03-11T02:34:22.159Z,0.53
2019-03-11T02:36:50.631Z,1.65
2019-03-11T02:39:19.472Z,0.73
2019-03-11T02:41:48.031Z,2.30
2019-03-11T02:44:16.939Z,0.55
2019-03-11T02:46:45.732Z,1.33
2019-03-11T02:49:14.199Z,1.00
2019-03-11T02:51:42.765Z,1.33
2019-03-11T02:54:11.234Z,1.87
2019-03-11T02:57:10.135Z,4.33
2019-03-11T02:59:39.061Z,9.27
2019-03-11T03:02:15.655Z,9.00
2019-03-11T03:04:48.103Z,5.93
2019-03-11T03:07:16.657Z,9.87
2019-03-11T03:09:45.196Z,4.73
2019-03-11T03:12:13.991Z,6.97
2019-03-11T03:14:43.329Z,7.17
2019-03-11T03:17:12.121Z,8.10
2019-03-11T03:19:40.850Z,8.60
2019-03-11T03:22:09.390Z,10.97
2019-03-11T03:24:38.002Z,10.37
2019-03-11T03:27:06.486Z,12.43
2019-03-11T03:30:08.258Z,7.50
2019-03-11T03:32:36.791Z,2.20
2019-03-11T03:35:06.042Z,1.30
2019-03-11T03:37:34.887Z,0.70
2019-03-11T03:40:03.773Z,2.07
2019-03-11T03:42:32.359Z,0.97
2019-03-11T03:45:12.083Z,2.27
2019-03-11T03:47:41.147Z,1.73
2019-03-11T03:50:10.464Z,2.83
2019-03-11T03:52:39.154Z,2.30
2019-03-11T03:55:08.038Z,2.70
2019-03-11T03:58:13.451Z,2.33
2019-03-11T04:00:43.378Z,1.60
2019-03-11T04:03:14.205Z,1.52
2019-03-11T04:05:43.906Z,2.03
2019-03-11T04:08:12.677Z,2.73
2019-03-11T04:10:41.227Z,1.90
2019-03-11T04:13:09.717Z,1.60
2019-03-11T04:15:38.226Z,1.53
2019-03-11T04:18:08.807Z,1.53
2019-03-11T04:20:37.515Z,4.70
2019-03-11T04:23:06.080Z,1.82
2019-03-11T04:25:34.646Z,4.53
2019-03-11T04:28:03.254Z,2.93
2019-03-11T04:30:31.773Z,2.50
2019-03-11T04:33:00.597Z,2.23
2019-03-11T04:35:29.380Z,2.57
2019-03-11T04:37:57.902Z,4.93
2019-03-11T04:40:26.741Z,3.87
2019-03-11T04:42:55.285Z,5.27
2019-03-11T04:45:24.221Z,7.17
2019-03-11T04:47:52.755Z,5.87
2019-03-11T04:50:54.333Z,6.33
2019-03-11T04:53:23.154Z,4.60
2019-03-11T04:55:51.669Z,2.93
2019-03-11T04:58:20.149Z,3.10
2019-03-11T05:00:49.185Z,3.63
2019-03-11T05:03:17.673Z,6.17
2019-03-11T05:05:46.234Z,2.87
2019-03-11T05:08:14.913Z,3.23
2019-03-11T05:10:43.457Z,3.40
2019-03-11T05:13:12.005Z,1.97
2019-03-11T05:15:40.795Z,3.20
2019-03-11T05:18:09.538Z,4.60
2019-03-11T05:23:21.181Z,4.40
2019-03-11T05:25:50.017Z,4.13
2019-03-11T05:28:18.515Z,4.53
2019-03-11T05:30:47.066Z,4.80
2019-03-11T05:33:15.837Z,4.17
2019-03-11T05:35:44.341Z,5.67
2019-03-11T05:38:12.854Z,5.87
2019-03-11T05:40:41.352Z,4.33
2019-03-11T05:43:09.837Z,6.40
2019-03-11T05:45:38.341Z,6.17
2019-03-11T05:48:06.853Z,4.97
2019-03-11T05:50:35.441Z,4.70
2019-03-11T05:53:03.937Z,6.83
2019-03-11T05:55:32.408Z,6.67
2019-03-11T05:58:00.913Z,6.10
2019-03-11T06:00:39.167Z,7.77
2019-03-11T06:03:07.808Z,7.60
2019-03-11T06:05:36.465Z,9.23
2019-03-11T06:08:05.064Z,9.87
2019-03-11T06:10:33.616Z,9.23
2019-03-11T06:13:02.194Z,10.53
2019-03-11T06:15:30.994Z,9.00
2019-03-11T06:18:00.109Z,16.20
2019-03-11T06:20:50.366Z,16.50
2019-03-11T06:23:19.308Z,14.17
2019-03-11T06:25:48.146Z,11.67
2019-03-11T06:28:16.672Z,16.13
2019-03-11T06:30:45.205Z,17.80
2019-03-11T06:33:13.997Z,18.07
2019-03-11T06:35:43.094Z,12.93
2019-03-11T06:38:11.647Z,10.18
2019-03-11T06:40:40.160Z,11.10
2019-03-11T06:43:08.920Z,11.93
2019-03-11T06:45:37.444Z,10.50
2019-03-11T06:48:05.942Z,12.23
2019-03-11T06:50:34.684Z,10.13
2019-03-11T06:53:03.544Z,7.27
2019-03-11T06:55:32.040Z,6.77
2019-03-11T06:58:00.840Z,7.60
2019-03-11T07:00:29.326Z,7.80
2019-03-11T07:02:57.825Z,5.70
2019-03-11T07:05:26.284Z,8.00
2019-03-11T07:07:54.792Z,5.67
2019-03-11T07:10:23.448Z,4.73
2019-03-11T07:12:52.418Z,5.37
2019-03-11T07:15:20.956Z,5.70
2019-03-11T07:17:49.709Z,4.00
2019-03-11T07:20:18.293Z,4.10
2019-03-11T07:22:46.838Z,5.40
2019-03-11T07:25:15.597Z,4.83
2019-03-11T07:27:44.147Z,5.30
2019-03-11T07:30:12.837Z,5.27
2019-03-11T07:32:41.356Z,6.27
2019-03-11T07:35:09.963Z,5.77
2019-03-11T07:37:38.519Z,3.30
2019-03-11T07:40:07.034Z,6.20
2019-03-11T07:42:35.832Z,3.47
2019-03-11T07:45:04.691Z,4.00
2019-03-11T07:47:33.151Z,3.10
2019-03-11T07:50:01.703Z,5.55
2019-03-11T07:52:30.251Z,4.03
2019-03-11T07:54:58.715Z,3.90
2019-03-11T07:57:41.613Z,4.40
2019-03-11T08:00:10.303Z,3.47
2019-03-11T08:02:38.824Z,3.27
2019-03-11T08:05:08.027Z,5.20
2019-03-11T08:07:36.560Z,5.00
2019-03-11T08:10:06.836Z,3.50
2019-03-11T08:12:35.301Z,3.50
2019-03-11T08:15:03.983Z,4.83
2019-03-11T08:17:32.443Z,3.77
2019-03-11T08:20:00.887Z,3.97
2019-03-11T08:22:29.559Z,4.12
2019-03-11T08:24:58.059Z,1.73
2019-03-11T08:27:26.551Z,3.20
2019-03-11T08:29:55.012Z,2.57
2019-03-11T08:32:23.541Z,2.95
2019-03-11T08:34:52.368Z,4.60
2019-03-11T08:37:20.839Z,2.90
2019-03-11T08:39:49.547Z,1.70
2019-03-11T08:42:18.279Z,4.55
2019-03-11T08:44:46.747Z,1.95
2019-03-11T08:47:15.227Z,4.00
2019-03-11T08:49:44.080Z,3.97
2019-03-11T08:52:12.575Z,3.07
2019-03-11T08:54:41.254Z,3.57
2019-03-11T08:57:09.947Z,4.67
2019-03-11T08:59:38.387Z,2.60
2019-03-11T09:02:06.955Z,4.00
2019-03-11T09:04:35.659Z,3.47
2019-03-11T09:07:04.834Z,2.50
2019-03-11T09:09:33.559Z,3.02
2019-03-11T09:12:02.330Z,4.30
2019-03-11T09:14:31.083Z,3.83
2019-03-11T09:16:59.607Z,2.87
2019-03-11T09:19:28.659Z,7.03
2019-03-11T09:21:57.126Z,4.40
2019-03-11T09:24:25.619Z,2.17
2019-03-11T09:26:54.079Z,3.58
2019-03-11T09:29:23.190Z,6.17
2019-03-11T09:31:51.635Z,2.20
2019-03-11T09:34:20.347Z,4.97
2019-03-11T09:36:48.798Z,2.35
2019-03-11T09:39:17.470Z,2.43
2019-03-11T09:41:46.438Z,4.17
2019-03-11T09:44:14.906Z,2.00
2019-03-11T09:46:43.402Z,7.42
2019-03-11T09:49:12.159Z,4.37
2019-03-11T09:51:40.618Z,5.95
2019-03-11T09:54:09.898Z,5.35
2019-03-11T09:56:43.348Z,3.95
2019-03-11T09:59:07.755Z,4.65
2019-03-11T10:01:36.190Z,2.45
2019-03-11T10:04:04.995Z,3.02
2019-03-11T10:06:34.194Z,4.20
2019-03-11T10:09:02.814Z,2.08
2019-03-11T10:11:31.542Z,1.82
2019-03-11T10:13:59.966Z,3.02
2019-03-11T10:16:28.466Z,4.03
2019-03-11T10:18:56.958Z,2.02
2019-03-11T10:21:25.686Z,2.37
2019-03-11T10:23:54.646Z,3.75
2019-03-11T10:26:23.178Z,2.65
2019-03-11T10:28:51.706Z,1.40
2019-03-11T10:31:21.418Z,3.00
2019-03-11T10:33:49.878Z,5.12
2019-03-11T10:36:18.358Z,4.65
2019-03-11T10:38:46.822Z,7.08
2019-03-11T10:41:15.410Z,2.35
2019-03-11T10:43:43.858Z,3.65
2019-03-11T10:46:12.314Z,1.70
2019-03-11T10:48:40.790Z,3.83
2019-03-11T10:51:09.269Z,3.08
2019-03-11T10:53:37.827Z,1.80
2019-03-11T10:56:06.750Z,2.35
2019-03-11T10:59:06.006Z,1.60
2019-03-11T11:01:34.462Z,2.55
2019-03-11T11:04:02.986Z,1.20
2019-03-11T11:06:31.486Z,3.80
2019-03-11T11:08:59.923Z,2.25
2019-03-11T11:11:28.402Z,1.85
2019-03-11T11:13:56.899Z,1.67
2019-03-11T11:16:25.861Z,1.77
2019-03-11T11:18:54.530Z,1.42
2019-03-11T11:21:22.985Z,1.10
2019-03-11T11:23:51.466Z,1.55
2019-03-11T11:26:19.938Z,1.85
2019-03-11T11:28:48.461Z,2.55
2019-03-11T11:31:16.901Z,2.50
2019-03-11T11:33:45.349Z,1.35
2019-03-11T11:36:13.829Z,3.03
2019-03-11T11:38:42.366Z,3.65
2019-03-11T11:41:10.821Z,2.47
2019-03-11T11:43:39.297Z,2.42
2019-03-11T11:46:07.800Z,2.85
2019-03-11T11:48:36.658Z,5.10
2019-03-11T11:51:05.137Z,2.42
2019-03-11T11:53:33.754Z,6.83
2019-03-11T11:56:02.197Z,1.47
2019-03-11T11:58:31.005Z,2.45
2019-03-11T12:00:59.469Z,2.17
2019-03-11T12:03:27.969Z,4.40
2019-03-11T12:05:56.518Z,5.22
2019-03-11T12:08:25.273Z,2.77
2019-03-11T12:10:53.817Z,3.42
2019-03-11T12:13:22.341Z,3.08
2019-03-11T12:15:50.931Z,1.70
2019-03-11T12:18:19.693Z,3.70
2019-03-11T12:20:48.749Z,3.92
2019-03-11T12:23:17.250Z,2.10
2019-03-11T12:25:46.053Z,1.37
2019-03-11T12:28:14.529Z,2.37
2019-03-11T12:30:43.017Z,2.42
2019-03-11T12:33:11.850Z,3.42
2019-03-11T12:35:40.593Z,1.50
2019-03-11T12:38:09.105Z,2.65
2019-03-11T12:40:38.109Z,2.70
2019-03-11T12:43:06.789Z,3.62
2019-03-11T12:45:35.309Z,3.35
2019-03-11T12:48:03.817Z,3.45
2019-03-11T12:50:32.393Z,4.30
2019-03-11T12:53:00.984Z,2.30
2019-03-11T12:59:00.694Z,1.20
2019-03-11T13:01:29.481Z,3.65
2019-03-11T13:03:57.940Z,3.02
2019-03-11T13:06:27.117Z,2.87
2019-03-11T13:08:55.908Z,2.83
2019-03-11T13:11:24.949Z,2.85
2019-03-11T13:13:53.690Z,6.40
2019-03-11T13:16:22.728Z,1.57
2019-03-11T13:18:53.936Z,2.90
2019-03-11T13:21:29.036Z,2.80
2019-03-11T13:23:57.880Z,1.75
2019-03-11T13:26:26.344Z,4.17
2019-03-11T13:28:54.804Z,2.25
2019-03-11T13:31:23.604Z,2.15
2019-03-11T13:33:52.324Z,2.20
2019-03-11T13:36:20.800Z,3.00
2019-03-11T13:38:49.532Z,2.62
2019-03-11T13:41:18.008Z,2.73
2019-03-11T13:43:48.593Z,3.05
2019-03-11T13:46:15.356Z,2.22
2019-03-11T13:48:43.908Z,3.98
2019-03-11T13:51:12.801Z,2.98
2019-03-11T13:53:41.306Z,3.27
2019-03-11T13:56:10.092Z,3.93
2019-03-11T13:58:38.811Z,5.00
2019-03-11T14:01:07.664Z,8.00
2019-03-11T14:03:36.219Z,6.42
2019-03-11T14:06:04.744Z,6.97
2019-03-11T14:08:33.219Z,4.83
2019-03-11T14:11:01.708Z,3.35
2019-03-11T14:13:30.204Z,5.70
2019-03-11T14:15:58.808Z,3.75
2019-03-11T14:18:27.304Z,4.72
2019-03-11T14:20:55.747Z,4.05
2019-03-11T14:23:24.440Z,7.10
2019-03-11T14:25:52.968Z,5.10
2019-03-11T14:28:21.450Z,2.95
2019-03-11T14:30:49.906Z,2.65
2019-03-11T14:33:18.489Z,2.17
2019-03-11T14:35:46.979Z,4.67
2019-03-11T14:38:15.484Z,4.17
2019-03-11T14:40:43.988Z,3.33
2019-03-11T14:43:12.476Z,3.83
2019-03-11T14:45:41.044Z,2.87
2019-03-11T14:48:09.556Z,3.00
2019-03-11T14:50:38.043Z,3.50
2019-03-11T14:54:09.100Z,4.10
2019-03-11T14:56:40.107Z,6.60
2019-03-11T14:59:11.976Z,4.35
2019-03-11T15:04:18.104Z,3.70
2019-03-11T15:06:47.199Z,3.87
2019-03-11T15:09:16.095Z,5.58
2019-03-11T15:11:44.696Z,4.67
2019-03-11T15:14:13.331Z,2.45
2019-03-11T15:16:41.823Z,4.83
2019-03-11T15:19:10.449Z,3.70
2019-03-11T15:21:39.455Z,7.12
2019-03-11T15:24:09.107Z,4.50
2019-03-11T15:33:22.124Z,8.30
2019-03-11T15:35:50.710Z,6.35
2019-03-11T15:38:19.439Z,8.65
2019-03-11T15:40:47.915Z,6.12
2019-03-11T15:43:16.362Z,6.20
2019-03-11T15:45:44.891Z,3.67
2019-03-11T15:48:13.372Z,4.47
2019-03-11T15:50:41.879Z,9.30
2019-03-11T15:53:10.519Z,7.75
2019-03-11T15:55:39.171Z,5.80
2019-03-11T15:58:07.729Z,6.62
2019-03-11T16:00:37.707Z,4.17
2019-03-11T16:03:06.235Z,7.35
2019-03-11T16:05:34.742Z,6.28
2019-03-11T16:08:03.578Z,9.28
2019-03-11T16:10:32.062Z,8.65
2019-03-11T16:13:01.386Z,9.20
2019-03-11T16:15:30.054Z,7.17
2019-03-11T16:17:58.518Z,7.47
2019-03-11T16:20:27.119Z,7.90
2019-03-11T16:22:55.840Z,7.58
2019-03-11T16:25:24.566Z,5.15
2019-03-11T16:27:53.261Z,5.80
2019-03-11T16:30:22.082Z,5.60
2019-03-11T16:33:00.435Z,6.13
2019-03-11T16:35:19.600Z,7.87
2019-03-11T16:37:48.536Z,7.12
2019-03-11T16:40:17.404Z,12.43
2019-03-11T16:42:46.258Z,15.43
2019-03-11T16:45:15.195Z,10.63
2019-03-11T16:47:44.875Z,7.40
2019-03-11T16:50:14.826Z,9.13
2019-03-11T16:52:43.670Z,10.32
2019-03-11T16:55:13.441Z,14.53
2019-03-11T16:57:42.975Z,10.30
2019-03-11T17:00:14.566Z,11.83
2019-03-11T17:02:43.402Z,11.17
2019-03-11T17:05:12.190Z,13.88
2019-03-11T17:07:41.233Z,9.48
2019-03-11T17:10:11.614Z,14.17
2019-03-11T17:12:40.802Z,16.05
2019-03-11T17:15:09.638Z,15.50
2019-03-11T17:17:38.474Z,14.45
2019-03-11T17:20:08.315Z,19.27
2019-03-11T17:22:36.955Z,19.37
2019-03-11T17:25:07.610Z,15.23
2019-03-11T17:27:36.524Z,18.37
2019-03-11T17:30:06.456Z,20.45
2019-03-11T17:32:35.271Z,19.80
2019-03-11T17:35:04.411Z,18.27
2019-03-11T17:37:33.275Z,21.77
2019-03-11T17:40:02.190Z,18.65
2019-03-11T17:44:00.529Z,21.52
2019-03-11T17:46:29.628Z,21.52
2019-03-11T17:48:58.486Z,23.33
2019-03-11T17:51:27.379Z,23.57
2019-03-11T17:53:56.039Z,27.22
2019-03-11T17:56:24.847Z,22.07
2019-03-11T18:00:25.268Z,24.85
2019-03-11T18:02:51.964Z,23.00
2019-03-11T18:05:21.007Z,23.83
2019-03-11T18:07:49.915Z,26.27
2019-03-11T18:10:18.827Z,22.93
2019-03-11T18:12:47.709Z,26.13
2019-03-11T18:15:16.740Z,29.90
2019-03-11T18:17:45.888Z,23.23
2019-03-11T18:20:14.855Z,29.40
2019-03-11T18:22:43.892Z,23.65
2019-03-11T18:25:13.483Z,20.60
2019-03-11T18:27:42.363Z,22.93
2019-03-11T18:30:13.509Z,21.00
2019-03-11T18:32:42.383Z,20.43
2019-03-11T18:35:11.294Z,21.10
2019-03-11T18:37:40.232Z,21.27
2019-03-11T18:40:10.707Z,25.43
2019-03-11T18:42:39.818Z,20.40
2019-03-11T18:45:09.075Z,19.30
2019-03-11T18:47:38.045Z,21.42
2019-03-11T18:50:08.474Z,20.40
2019-03-11T18:52:37.358Z,20.20
2019-03-11T18:55:06.382Z,21.83
2019-03-11T18:57:35.276Z,20.70
2019-03-11T19:00:04.481Z,21.00
2019-03-11T19:05:34.902Z,24.30
2019-03-11T19:08:03.844Z,22.87
2019-03-11T19:10:32.710Z,26.62
2019-03-11T19:13:01.510Z,18.57
2019-03-11T19:15:30.486Z,14.23
2019-03-11T19:17:59.687Z,20.72
2019-03-11T19:20:28.781Z,19.33
2019-03-11T19:22:57.677Z,23.77
2019-03-11T19:25:26.658Z,24.13
2019-03-11T19:27:55.559Z,24.47
2019-03-11T19:30:24.522Z,20.73
2019-03-11T19:32:53.485Z,27.40
2019-03-11T19:35:22.479Z,31.70
2019-03-11T19:37:51.344Z,24.23
2019-03-11T19:40:20.275Z,26.03
2019-03-11T19:42:49.195Z,24.27
2019-03-11T19:45:18.083Z,28.27
2019-03-11T19:47:46.937Z,27.57
2019-03-11T19:50:16.093Z,21.77
2019-03-11T19:52:57.204Z,23.20
2019-03-11T19:55:13.747Z,21.83
2019-03-11T19:57:42.782Z,23.30
2019-03-11T20:00:13.940Z,18.93
2019-03-11T20:02:42.891Z,25.87
2019-03-11T20:05:11.958Z,23.97
2019-03-11T20:07:41.016Z,25.30
2019-03-11T20:10:10.825Z,22.15
2019-03-11T20:12:39.694Z,23.27
2019-03-11T20:15:09.147Z,22.07
2019-03-11T20:17:37.791Z,23.43
2019-03-11T20:20:07.408Z,20.83
2019-03-11T20:22:36.612Z,21.33
2019-03-11T20:25:06.961Z,21.60
2019-03-11T20:27:47.272Z,23.43
2019-03-11T20:44:15.351Z,25.00
2019-03-11T20:47:01.251Z,22.57
2019-03-11T20:52:13.248Z,16.27
2019-03-11T20:54:43.232Z,14.43
2019-03-11T20:59:47.695Z,14.17
2019-03-11T21:02:16.589Z,15.37
2019-03-11T21:04:45.420Z,18.20
2019-03-11T21:07:14.495Z,15.03
2019-03-11T21:09:43.143Z,15.50
2019-03-11T21:12:11.937Z,15.40
2019-03-11T21:14:40.491Z,14.50
2019-03-11T21:17:08.992Z,13.30
2019-03-11T21:19:37.532Z,12.23
2019-03-11T21:22:06.149Z,16.20
2019-03-11T21:24:35.083Z,15.07
2019-03-11T21:27:03.269Z,20.10
2019-03-11T21:29:31.863Z,22.00
2019-03-11T21:32:00.865Z,20.20
2019-03-11T21:34:29.403Z,19.43
2019-03-11T21:36:58.192Z,19.20
2019-03-11T21:39:26.773Z,20.47
2019-03-11T21:41:55.385Z,17.47
2019-03-11T21:44:24.031Z,11.63
2019-03-11T21:46:52.553Z,10.00
2019-03-11T21:49:21.033Z,9.28
2019-03-11T21:51:49.550Z,8.10
2019-03-11T21:54:18.093Z,11.93
2019-03-11T21:56:46.620Z,9.23
2019-03-11T21:59:15.157Z,4.93
2019-03-11T22:01:43.672Z,5.45
2019-03-11T22:04:12.264Z,5.27
2019-03-11T22:06:40.855Z,6.23
2019-03-11T22:09:09.459Z,5.03
2019-03-11T22:11:38.187Z,6.60
2019-03-11T22:14:06.630Z,7.60
2019-03-11T22:16:35.144Z,11.07
2019-03-11T22:19:04.171Z,10.63
2019-03-11T22:21:32.664Z,10.50
2019-03-11T22:24:01.200Z,7.47
2019-03-11T22:26:30.460Z,5.57
2019-03-11T22:28:58.946Z,4.57
2019-03-11T22:31:27.412Z,5.17
2019-03-11T22:33:56.220Z,6.33
2019-03-11T22:36:24.913Z,9.90
2019-03-11T22:38:53.416Z,7.70
2019-03-11T22:41:21.856Z,7.17
2019-03-11T22:43:50.483Z,7.63
2019-03-11T22:46:19.164Z,7.30
2019-03-11T22:48:47.810Z,5.87
2019-03-11T22:51:16.267Z,5.93
2019-03-11T22:53:44.695Z,5.63
2019-03-11T22:56:13.454Z,4.43
2019-03-11T22:58:41.928Z,4.40
2019-03-11T23:01:10.511Z,3.07
2019-03-11T23:03:39.606Z,5.80
2019-03-11T23:06:08.065Z,6.77
2019-03-11T23:08:36.523Z,3.83
2019-03-11T23:11:04.975Z,5.50
2019-03-11T23:13:33.603Z,5.27
2019-03-11T23:16:02.147Z,6.97
2019-03-11T23:18:30.712Z,5.07
2019-03-11T23:20:59.759Z,5.67
2019-03-11T23:23:28.491Z,5.67
2019-03-11T23:25:57.551Z,7.60
2019-03-11T23:28:26.104Z,4.97
2019-03-11T23:30:54.776Z,7.07
2019-03-11T23:33:23.316Z,3.70
2019-03-11T23:35:51.872Z,5.53
2019-03-11T23:38:20.371Z,4.30
2019-03-11T23:40:48.828Z,8.50
2019-03-11T23:43:17.375Z,7.27
2019-03-11T23:45:46.415Z,5.83
2019-03-11T23:48:14.875Z,7.00
2019-03-11T23:50:43.331Z,7.33
2019-03-11T23:53:11.831Z,9.23
2019-03-11T23:55:40.339Z,6.27
2019-03-11T23:58:08.802Z,9.03
